createdAt,value
2018-11-22T07:03:49.915Z,37.63
2018-11-22T07:06:29.611Z,37.69
2018-11-22T07:09:11.375Z,37.70
2018-11-22T07:11:50.832Z,37.60
2018-11-22T07:14:30.536Z,37.51
2018-11-22T07:17:10.138Z,37.39
2018-11-22T07:19:49.689Z,37.29
2018-11-22T07:22:28.803Z,37.14
2018-11-22T07:25:08.127Z,37.02
2018-11-22T07:27:47.048Z,36.93
2018-11-22T07:30:27.538Z,36.83
2018-11-22T07:33:07.499Z,36.76
2018-11-22T07:35:46.773Z,36.70
2018-11-22T07:38:26.052Z,36.64
2018-11-22T07:41:04.968Z,36.56
2018-11-22T07:43:44.625Z,36.50
2018-11-22T07:46:24.520Z,36.43
2018-11-22T07:49:03.901Z,36.40
2018-11-22T07:54:19.915Z,36.45
2018-11-22T07:56:59.275Z,36.45
2018-11-22T07:59:38.360Z,36.38
2018-11-22T08:02:17.784Z,36.32
2018-11-22T08:04:56.701Z,36.31
2018-11-22T08:07:35.795Z,36.27
2018-11-22T08:10:17.051Z,36.18
2018-11-22T08:12:57.592Z,36.09
2018-11-22T08:15:38.899Z,36.09
2018-11-22T08:18:18.516Z,36.08
2018-11-22T08:20:57.484Z,36.02
2018-11-22T08:23:36.961Z,36.02
2018-11-22T08:26:16.522Z,35.97
2018-11-22T08:28:55.915Z,35.88
2018-11-22T08:31:35.033Z,35.82
2018-11-22T08:34:14.319Z,35.80
2018-11-22T08:36:54.555Z,35.70
2018-11-22T08:39:33.886Z,35.69
2018-11-22T08:42:14.267Z,35.60
2018-11-22T08:44:53.904Z,35.51
2018-11-22T08:47:33.393Z,35.50
2018-11-22T08:50:15.479Z,35.51
2018-11-22T08:52:56.453Z,35.48
2018-11-22T08:55:35.841Z,35.48
2018-11-22T08:58:15.200Z,35.47
2018-11-22T09:00:55.175Z,35.40
2018-11-22T09:03:34.983Z,35.37
2018-11-22T09:06:14.599Z,35.32
2018-11-22T09:08:54.332Z,35.32
2018-11-22T09:11:33.608Z,35.32
2018-11-22T09:14:12.877Z,35.33
2018-11-22T09:16:51.931Z,35.29
2018-11-22T09:19:31.051Z,35.25
2018-11-22T09:22:11.115Z,35.25
2018-11-22T09:24:50.094Z,35.28
2018-11-22T09:27:29.273Z,35.22
2018-11-22T09:30:10.133Z,35.20
2018-11-22T09:32:50.298Z,35.16
2018-11-22T09:35:30.539Z,35.15
2018-11-22T09:38:09.896Z,35.11
2018-11-22T09:40:49.086Z,35.07
2018-11-22T09:43:28.126Z,35.05
2018-11-22T09:46:07.231Z,35.05
2018-11-22T09:48:46.274Z,35.05
2018-11-22T09:51:25.304Z,35.02
2018-11-22T09:54:04.789Z,35.05
2018-11-22T09:56:44.158Z,34.98
2018-11-22T09:59:23.837Z,34.96
2018-11-22T10:02:03.455Z,34.98
2018-11-22T10:04:43.778Z,35.00
2018-11-22T10:07:22.686Z,34.98
2018-11-22T10:10:01.866Z,34.96
2018-11-22T10:12:40.878Z,34.99
2018-11-22T10:15:21.602Z,34.96
2018-11-22T10:18:01.114Z,34.94
2018-11-22T10:20:39.999Z,34.95
2018-11-22T10:23:19.546Z,34.92
2018-11-22T10:25:58.445Z,34.85
2018-11-22T10:28:37.680Z,34.80
2018-11-22T10:31:17.107Z,34.65
2018-11-22T10:34:01.582Z,34.58
2018-11-22T10:36:41.064Z,34.50
2018-11-22T12:43:01.437Z,35.49
2018-11-22T12:45:40.793Z,35.77
2018-11-22T12:48:19.846Z,35.91
2018-11-22T12:50:59.010Z,35.92
2018-11-22T12:53:38.199Z,35.82
2018-11-22T12:56:17.079Z,35.72
2018-11-22T12:58:56.074Z,35.56
2018-11-22T13:01:35.866Z,35.48
2018-11-22T13:04:14.768Z,35.42
2018-11-22T13:06:53.864Z,35.34
2018-11-22T13:09:32.753Z,35.29
2018-11-22T13:12:12.669Z,35.22
2018-11-22T13:14:52.055Z,35.19
2018-11-22T13:17:32.027Z,35.19
2018-11-22T13:20:13.645Z,35.17
2018-11-22T13:22:53.104Z,35.15
2018-11-22T13:25:32.448Z,35.11
2018-11-22T13:28:11.372Z,35.08
2018-11-22T13:30:50.284Z,35.05
2018-11-22T13:33:29.442Z,35.00
2018-11-22T13:36:08.452Z,34.99
2018-11-22T13:38:47.536Z,34.93
2018-11-22T13:41:26.996Z,34.89
2018-11-22T13:44:06.205Z,34.84
2018-11-22T13:46:46.319Z,34.82
2018-11-22T13:49:25.934Z,34.83
2018-11-22T13:52:05.389Z,34.82
2018-11-22T13:54:45.719Z,34.83
2018-11-22T13:57:26.344Z,34.84
2018-11-22T14:00:06.286Z,34.81
2018-11-22T14:02:46.055Z,34.77
2018-11-22T14:05:25.261Z,34.77
2018-11-22T14:08:04.374Z,34.76
2018-11-22T14:10:44.440Z,34.75
2018-11-22T14:13:25.168Z,34.75
2018-11-22T14:16:04.173Z,34.77
2018-11-22T14:18:44.033Z,34.77
2018-11-22T14:21:23.845Z,34.80
2018-11-22T14:24:03.454Z,34.83
2018-11-22T14:26:42.558Z,34.83
2018-11-22T14:29:21.553Z,34.83
2018-11-22T14:32:01.811Z,34.87
2018-11-22T14:34:41.918Z,34.86
2018-11-22T14:37:22.351Z,34.87
2018-11-22T14:40:03.462Z,34.87
2018-11-22T14:42:43.427Z,34.86
2018-11-22T14:45:23.143Z,34.86
2018-11-22T14:48:04.165Z,34.91
2018-11-22T14:51:05.250Z,34.86
2018-11-22T14:53:45.070Z,34.87
2018-11-22T14:56:24.997Z,34.97
2018-11-22T14:59:05.844Z,34.84
2018-11-22T15:01:45.786Z,34.82
2018-11-22T15:04:26.160Z,34.81
2018-11-22T15:07:05.739Z,34.80
2018-11-22T15:09:46.287Z,34.80
2018-11-22T15:12:25.895Z,34.78
2018-11-22T15:15:05.995Z,34.79
2018-11-22T15:17:50.433Z,34.79
2018-11-22T15:20:32.616Z,34.79
2018-11-22T15:23:12.306Z,34.79
2018-11-22T15:25:52.879Z,34.76
2018-11-22T15:28:32.354Z,34.77
2018-11-22T15:31:11.830Z,34.72
2018-11-22T15:33:53.921Z,34.74
2018-11-22T15:36:34.532Z,34.74
2018-11-22T15:39:15.415Z,34.73
2018-11-22T15:41:54.414Z,34.73
2018-11-22T15:44:34.579Z,34.73
2018-11-22T15:47:14.575Z,34.70
2018-11-22T15:49:54.351Z,34.70
2018-11-22T15:52:33.931Z,34.70
2018-11-22T15:55:20.456Z,34.73
2018-11-22T15:57:55.133Z,34.71
2018-11-22T16:00:36.200Z,34.72
2018-11-22T16:03:16.371Z,34.73
2018-11-22T16:05:56.291Z,34.72
2018-11-22T16:08:36.079Z,34.73
2018-11-22T16:11:15.969Z,34.76
2018-11-22T16:13:55.733Z,34.77
2018-11-22T16:16:36.374Z,34.82
2018-11-22T16:19:16.802Z,34.80
